createdAt,value
2022-08-27T00:00:17.389Z,21.77
2022-08-27T00:02:44.443Z,21.78
2022-08-27T00:05:13.428Z,21.78
2022-08-27T00:07:41.072Z,21.76
2022-08-27T00:10:10.483Z,21.76
2022-08-27T00:12:37.695Z,21.75
2022-08-27T00:15:06.252Z,21.75
2022-08-27T00:17:33.640Z,21.73
2022-08-27T00:20:00.256Z,21.75
2022-08-27T00:22:26.861Z,21.74
2022-08-27T00:24:53.551Z,21.70
2022-08-27T00:27:20.161Z,21.65
2022-08-27T00:29:48.325Z,21.62
2022-08-27T00:32:15.956Z,21.63
2022-08-27T00:34:42.589Z,21.65
2022-08-27T00:37:09.278Z,21.72
2022-08-27T00:39:37.135Z,21.74
2022-08-27T00:42:07.908Z,21.73
2022-08-27T00:44:34.682Z,21.72
2022-08-27T00:47:05.755Z,21.69
2022-08-27T00:49:40.613Z,21.69
2022-08-27T00:52:33.528Z,21.69
2022-08-27T00:55:13.920Z,21.66
2022-08-27T00:57:43.289Z,21.65
2022-08-27T01:00:15.748Z,21.62
2022-08-27T01:02:43.630Z,21.64
2022-08-27T01:05:15.891Z,21.68
2022-08-27T01:07:47.738Z,21.69
2022-08-27T01:10:15.962Z,21.64
2022-08-27T01:12:43.183Z,21.67
2022-08-27T01:15:16.946Z,21.65
2022-08-27T01:17:48.045Z,21.63
2022-08-27T01:20:42.992Z,21.55
2022-08-27T01:23:37.663Z,21.48
2022-08-27T01:26:07.258Z,21.47
2022-08-27T01:28:37.737Z,21.47
2022-08-27T01:31:09.313Z,21.44
2022-08-27T01:33:36.437Z,21.47
2022-08-27T01:36:03.923Z,21.50
2022-08-27T01:38:31.774Z,21.49
2022-08-27T01:41:00.282Z,21.47
2022-08-27T01:43:28.191Z,21.47
2022-08-27T01:45:54.882Z,21.45
2022-08-27T01:48:22.472Z,21.45
2022-08-27T01:50:49.658Z,21.45
2022-08-27T01:53:22.155Z,21.45
2022-08-27T01:55:51.751Z,21.46
2022-08-27T01:58:21.375Z,21.45
2022-08-27T02:00:56.615Z,21.46
2022-08-27T02:03:23.743Z,21.46
2022-08-27T02:05:50.560Z,21.48
2022-08-27T02:08:18.398Z,21.48
2022-08-27T02:10:46.867Z,21.50
2022-08-27T02:13:13.611Z,21.51
2022-08-27T02:15:41.364Z,21.54
2022-08-27T02:18:09.631Z,21.56
2022-08-27T02:20:37.022Z,21.55
2022-08-27T02:23:04.888Z,21.55
2022-08-27T02:25:31.783Z,21.53
2022-08-27T02:28:00.423Z,21.48
2022-08-27T02:30:28.910Z,21.43
2022-08-27T02:32:55.759Z,21.40
2022-08-27T02:35:24.797Z,21.39
2022-08-27T02:37:52.177Z,21.40
2022-08-27T02:40:21.433Z,21.44
2022-08-27T02:42:48.271Z,21.42
2022-08-27T02:45:16.999Z,21.40
2022-08-27T02:47:44.085Z,21.42
2022-08-27T02:50:11.854Z,21.42
2022-08-27T02:52:38.496Z,21.39
2022-08-27T02:55:06.343Z,21.40
2022-08-27T02:57:36.472Z,21.45
2022-08-27T03:00:07.042Z,21.46
2022-08-27T03:02:33.929Z,21.45
2022-08-27T03:05:00.614Z,21.46
2022-08-27T03:07:27.277Z,21.49
2022-08-27T03:09:53.899Z,21.47
2022-08-27T03:12:20.485Z,21.44
2022-08-27T03:14:49.635Z,21.43
2022-08-27T03:17:34.921Z,21.45
2022-08-27T03:20:02.301Z,21.46
2022-08-27T03:22:29.255Z,21.42
2022-08-27T03:24:56.454Z,21.39
2022-08-27T03:27:23.146Z,21.40
2022-08-27T03:29:49.831Z,21.36
2022-08-27T03:32:16.407Z,21.32
2022-08-27T03:34:43.013Z,21.30
2022-08-27T03:37:09.610Z,21.31
2022-08-27T03:39:36.225Z,21.30
2022-08-27T03:42:03.189Z,21.33
2022-08-27T03:44:30.007Z,21.32
2022-08-27T03:46:56.795Z,21.29
2022-08-27T03:49:24.149Z,21.28
2022-08-27T03:51:52.520Z,21.29
2022-08-27T03:54:19.311Z,21.29
2022-08-27T03:56:47.098Z,21.30
2022-08-27T03:59:15.659Z,21.31
2022-08-27T04:01:43.345Z,21.28
2022-08-27T04:04:09.993Z,21.25
2022-08-27T04:06:36.670Z,21.28
2022-08-27T04:09:04.600Z,21.30
2022-08-27T04:11:34.530Z,21.32
2022-08-27T04:14:04.512Z,21.35
2022-08-27T04:16:44.872Z,21.36
2022-08-27T04:19:12.959Z,21.37
2022-08-27T04:21:42.960Z,21.33
2022-08-27T04:24:11.235Z,21.28
2022-08-27T04:26:40.493Z,21.25
2022-08-27T04:29:07.478Z,21.25
2022-08-27T04:31:35.558Z,21.25
2022-08-27T04:34:02.642Z,21.23
2022-08-27T04:36:29.315Z,21.20
2022-08-27T04:38:55.883Z,21.18
2022-08-27T04:41:23.274Z,21.18
2022-08-27T04:43:53.027Z,21.19
2022-08-27T04:46:21.994Z,21.16
2022-08-27T04:48:49.139Z,21.15
2022-08-27T04:51:16.599Z,21.16
2022-08-27T04:53:44.967Z,21.15
2022-08-27T04:56:16.913Z,21.15
2022-08-27T04:58:43.996Z,21.12
2022-08-27T05:01:17.228Z,21.36
2022-08-27T05:03:44.284Z,21.50
2022-08-27T05:06:12.435Z,21.84
2022-08-27T05:08:39.889Z,22.04
2022-08-27T05:11:15.126Z,21.97
2022-08-27T05:13:45.659Z,22.05
2022-08-27T05:16:20.765Z,22.36
2022-08-27T05:18:48.831Z,22.64
2022-08-27T05:21:27.618Z,22.77
2022-08-27T05:23:56.597Z,22.76
2022-08-27T05:26:23.634Z,22.64
2022-08-27T05:28:50.310Z,22.71
2022-08-27T05:31:19.652Z,22.85
2022-08-27T05:33:47.598Z,23.07
2022-08-27T05:36:17.500Z,23.35
2022-08-27T05:38:44.181Z,23.30
2022-08-27T05:41:14.461Z,23.03
2022-08-27T05:43:46.503Z,22.75
2022-08-27T05:46:17.670Z,22.46
2022-08-27T05:48:44.697Z,22.26
2022-08-27T05:51:19.793Z,22.20
2022-08-27T05:53:56.579Z,22.17
2022-08-27T05:56:25.813Z,22.18
2022-08-27T05:59:10.742Z,22.37
2022-08-27T06:01:47.355Z,22.26
2022-08-27T06:04:17.652Z,22.32
2022-08-27T06:06:45.708Z,22.21
2022-08-27T06:09:15.235Z,22.01
2022-08-27T06:11:42.033Z,21.79
2022-08-27T06:14:09.665Z,21.62
2022-08-27T06:16:38.203Z,21.57
2022-08-27T06:19:06.085Z,21.45
2022-08-27T06:21:33.504Z,21.35
2022-08-27T06:24:00.859Z,21.32
2022-08-27T06:26:28.239Z,21.41
2022-08-27T06:28:55.354Z,21.52
2022-08-27T06:31:25.654Z,21.84
2022-08-27T06:33:53.994Z,22.21
2022-08-27T06:36:26.038Z,22.37
2022-08-27T06:38:54.376Z,22.46
2022-08-27T06:41:24.602Z,22.42
2022-08-27T06:43:52.695Z,22.27
2022-08-27T06:46:22.542Z,22.15
2022-08-27T06:48:56.487Z,22.22
2022-08-27T06:51:26.896Z,22.54
2022-08-27T06:53:55.735Z,22.80
2022-08-27T06:56:23.316Z,22.90
2022-08-27T06:58:58.227Z,22.90
2022-08-27T07:01:28.291Z,22.81
2022-08-27T07:03:59.903Z,22.76
2022-08-27T07:06:29.092Z,22.74
2022-08-27T07:08:57.258Z,22.79
2022-08-27T07:11:24.844Z,22.93
2022-08-27T07:13:51.533Z,22.98
2022-08-27T07:16:25.366Z,22.90
2022-08-27T07:18:54.558Z,22.83
2022-08-27T07:21:25.676Z,23.02
2022-08-27T07:23:54.528Z,23.32
2022-08-27T07:26:23.464Z,23.31
2022-08-27T07:28:50.860Z,23.42
2022-08-27T07:31:20.576Z,23.71
2022-08-27T07:33:52.639Z,23.79
2022-08-27T07:36:20.479Z,23.93
2022-08-27T07:38:53.528Z,23.94
2022-08-27T07:41:32.144Z,23.93
2022-08-27T07:44:21.114Z,23.85
2022-08-27T07:46:52.918Z,23.86
2022-08-27T07:49:22.233Z,23.52
2022-08-27T07:51:49.457Z,23.41
2022-08-27T07:54:16.448Z,23.53
2022-08-27T07:56:54.649Z,23.59
2022-08-27T07:59:24.063Z,23.55
2022-08-27T08:01:52.840Z,23.59
2022-08-27T08:04:20.454Z,23.69
2022-08-27T08:06:48.150Z,23.77
2022-08-27T08:09:15.231Z,23.57
2022-08-27T08:11:41.835Z,23.41
2022-08-27T08:14:08.454Z,23.18
2022-08-27T08:16:35.193Z,22.93
2022-08-27T08:19:02.184Z,22.76
2022-08-27T08:21:28.858Z,22.93
2022-08-27T08:23:55.456Z,23.06
2022-08-27T08:26:23.225Z,23.12
2022-08-27T08:28:49.867Z,23.08
2022-08-27T08:31:16.563Z,23.04
2022-08-27T08:33:43.454Z,23.31
2022-08-27T08:36:13.011Z,23.44
2022-08-27T08:38:41.501Z,23.45
2022-08-27T08:41:31.105Z,23.59
2022-08-27T08:44:03.476Z,23.53
2022-08-27T08:46:53.269Z,23.37
2022-08-27T08:49:32.263Z,23.59
2022-08-27T08:52:31.325Z,23.85
2022-08-27T08:55:10.966Z,24.06
2022-08-27T08:57:47.733Z,24.27
2022-08-27T09:00:15.058Z,24.32
2022-08-27T09:02:49.374Z,24.00
2022-08-27T09:05:16.875Z,24.03
2022-08-27T09:11:03.804Z,24.42
2022-08-27T09:13:37.930Z,24.33
2022-08-27T09:16:05.232Z,24.22
2022-08-27T09:18:36.701Z,24.08
2022-08-27T09:21:28.066Z,24.15
2022-08-27T09:24:13.407Z,24.23
2022-08-27T09:26:43.270Z,24.05
2022-08-27T09:29:21.464Z,24.16
2022-08-27T09:31:54.807Z,24.29
2022-08-27T09:34:23.388Z,24.55
2022-08-27T09:37:08.271Z,24.77
2022-08-27T09:39:47.528Z,24.99
2022-08-27T09:42:30.023Z,25.13
2022-08-27T09:44:57.324Z,25.04
2022-08-27T09:47:24.850Z,25.08
2022-08-27T09:50:06.627Z,25.17
2022-08-27T09:52:38.131Z,25.21
2022-08-27T09:55:06.409Z,25.25
2022-08-27T09:57:40.890Z,25.35
2022-08-27T10:00:15.389Z,24.98
2022-08-27T10:02:53.070Z,24.78
2022-08-27T10:05:29.131Z,24.70
2022-08-27T10:08:19.909Z,24.86
2022-08-27T10:10:54.818Z,24.94
2022-08-27T10:13:35.057Z,24.94
2022-08-27T10:16:23.745Z,24.96
2022-08-27T10:19:05.161Z,25.03
2022-08-27T10:21:43.048Z,24.83
2022-08-27T10:24:43.446Z,24.78
2022-08-27T10:27:49.586Z,25.05
2022-08-27T10:30:20.375Z,25.23
2022-08-27T10:33:05.401Z,25.30
2022-08-27T10:35:54.844Z,25.38
2022-08-27T10:38:56.454Z,25.43
2022-08-27T10:41:29.328Z,25.03
2022-08-27T10:44:28.062Z,24.81
2022-08-27T10:47:23.695Z,25.03
2022-08-27T10:50:11.318Z,25.02
2022-08-27T10:52:47.675Z,24.98
2022-08-27T10:55:52.575Z,24.90
2022-08-27T10:58:26.599Z,24.91
2022-08-27T11:01:11.214Z,24.79
2022-08-27T11:03:55.933Z,24.46
2022-08-27T11:06:37.095Z,24.38
2022-08-27T11:09:11.834Z,24.49
2022-08-27T11:15:00.453Z,24.95
2022-08-27T11:17:33.155Z,25.11
2022-08-27T11:20:12.055Z,25.17
2022-08-27T11:22:51.203Z,25.06
2022-08-27T11:25:36.101Z,25.09
2022-08-27T11:28:05.355Z,25.19
2022-08-27T11:30:34.706Z,25.25
2022-08-27T11:33:15.456Z,25.32
2022-08-27T11:35:51.183Z,25.25
2022-08-27T11:38:38.388Z,24.99
2022-08-27T11:41:23.447Z,24.87
2022-08-27T11:43:52.667Z,24.82
2022-08-27T11:46:28.479Z,24.79
2022-08-27T11:49:01.945Z,24.83
2022-08-27T11:51:35.274Z,24.85
2022-08-27T11:54:09.613Z,24.94
2022-08-27T11:56:42.666Z,25.03
2022-08-27T11:59:31.971Z,25.06
2022-08-27T12:02:31.533Z,25.44
2022-08-27T12:05:33.178Z,25.84
2022-08-27T12:08:01.074Z,26.17
2022-08-27T12:10:38.170Z,26.33
2022-08-27T12:13:32.292Z,26.39
2022-08-27T12:16:23.679Z,26.52
2022-08-27T12:19:26.846Z,26.88
2022-08-27T12:21:56.504Z,27.15
2022-08-27T12:24:30.874Z,27.19
2022-08-27T12:27:22.159Z,26.82
2022-08-27T12:29:54.036Z,26.53
2022-08-27T12:32:40.695Z,26.30
2022-08-27T12:35:30.353Z,26.18
2022-08-27T12:38:10.326Z,26.25
2022-08-27T12:40:46.138Z,26.35
2022-08-27T12:43:17.584Z,26.45
2022-08-27T12:45:46.671Z,26.32
2022-08-27T12:48:14.318Z,26.32
2022-08-27T12:50:40.976Z,26.37
2022-08-27T12:53:26.318Z,26.35
2022-08-27T12:56:11.608Z,26.60
2022-08-27T12:58:44.423Z,26.77
2022-08-27T13:01:28.343Z,26.79
2022-08-27T13:03:56.054Z,26.93
2022-08-27T13:06:31.057Z,27.00
2022-08-27T13:09:00.235Z,26.93
2022-08-27T13:11:31.390Z,26.81
2022-08-27T13:14:11.497Z,26.73
2022-08-27T13:16:44.053Z,26.49
2022-08-27T13:19:18.561Z,26.42
2022-08-27T13:21:48.778Z,26.38
2022-08-27T13:24:31.339Z,26.53
2022-08-27T13:26:58.146Z,26.72
2022-08-27T13:29:26.686Z,26.82
2022-08-27T13:31:53.965Z,26.93
2022-08-27T13:34:24.107Z,27.02
2022-08-27T13:37:06.938Z,27.00
2022-08-27T13:39:35.778Z,27.00
2022-08-27T13:42:04.414Z,26.95
2022-08-27T13:44:35.150Z,26.92
2022-08-27T13:47:15.920Z,27.01
2022-08-27T13:49:43.123Z,26.98
2022-08-27T13:52:16.069Z,26.92
2022-08-27T13:54:54.491Z,26.95
2022-08-27T13:57:28.353Z,26.92
2022-08-27T13:59:54.957Z,27.00
2022-08-27T14:02:28.503Z,26.88
2022-08-27T14:05:21.303Z,26.87
2022-08-27T14:07:51.210Z,26.87
2022-08-27T14:10:17.856Z,26.92
2022-08-27T14:12:47.539Z,26.93
2022-08-27T14:15:19.602Z,26.88
2022-08-27T14:17:47.656Z,26.54
2022-08-27T14:20:16.935Z,26.47
2022-08-27T14:22:44.983Z,26.56
2022-08-27T14:25:12.317Z,26.57
2022-08-27T14:27:40.696Z,26.50
2022-08-27T14:30:21.785Z,26.44
2022-08-27T14:32:58.528Z,26.26
2022-08-27T14:35:25.819Z,26.25
2022-08-27T14:37:53.044Z,26.14
2022-08-27T14:40:19.906Z,26.20
2022-08-27T14:42:46.682Z,26.41
2022-08-27T14:45:13.417Z,26.56
2022-08-27T14:47:42.019Z,26.57
2022-08-27T14:50:11.631Z,26.54
2022-08-27T14:52:41.740Z,26.47
2022-08-27T14:55:10.911Z,26.44
2022-08-27T14:57:38.884Z,26.48
2022-08-27T15:00:08.229Z,26.45
2022-08-27T15:02:35.687Z,26.46
2022-08-27T15:05:03.393Z,26.53
2022-08-27T15:07:38.796Z,26.65
2022-08-27T15:10:08.735Z,26.62
2022-08-27T15:12:35.998Z,26.59
2022-08-27T15:15:03.798Z,26.66
2022-08-27T15:17:35.015Z,26.82
2022-08-27T15:20:07.911Z,26.83
2022-08-27T15:22:37.713Z,26.78
2022-08-27T15:25:08.927Z,26.83
2022-08-27T15:27:39.160Z,26.88
2022-08-27T15:30:13.561Z,26.97
2022-08-27T15:32:43.016Z,27.13
2022-08-27T15:35:14.066Z,27.32
2022-08-27T15:37:42.217Z,27.66
2022-08-27T15:40:10.384Z,27.81
2022-08-27T15:42:37.028Z,27.74
2022-08-27T15:45:04.798Z,27.68
2022-08-27T15:47:31.671Z,27.68
2022-08-27T15:49:58.401Z,27.69
2022-08-27T15:52:25.673Z,28.25
2022-08-27T15:55:14.846Z,29.19
2022-08-27T15:57:41.514Z,29.79
2022-08-27T16:00:09.078Z,29.72
2022-08-27T16:02:35.799Z,29.71
2022-08-27T16:05:02.538Z,29.89
2022-08-27T16:07:29.095Z,30.34
2022-08-27T16:09:55.747Z,30.68
2022-08-27T16:12:27.640Z,30.77
2022-08-27T16:14:55.257Z,30.71
2022-08-27T16:17:22.572Z,30.59
2022-08-27T16:19:49.591Z,30.52
2022-08-27T16:22:16.366Z,30.49
2022-08-27T16:24:43.024Z,30.41
2022-08-27T16:27:09.888Z,30.53
2022-08-27T16:29:36.728Z,30.61
2022-08-27T16:32:04.553Z,30.87
2022-08-27T16:34:32.110Z,31.09
2022-08-27T16:36:58.676Z,31.48
2022-08-27T16:39:28.249Z,31.69
2022-08-27T16:41:58.772Z,31.67
2022-08-27T16:44:26.274Z,31.16
2022-08-27T16:46:53.456Z,30.80
2022-08-27T16:49:38.525Z,30.39
2022-08-27T16:52:07.257Z,30.09
2022-08-27T16:54:34.832Z,29.70
2022-08-27T16:57:01.803Z,29.28
2022-08-27T16:59:28.468Z,28.87
2022-08-27T17:01:55.558Z,28.55
2022-08-27T17:04:30.292Z,28.30
2022-08-27T17:06:59.208Z,28.09
2022-08-27T17:09:26.517Z,27.91
2022-08-27T17:11:57.251Z,27.72
2022-08-27T17:14:24.651Z,27.49
2022-08-27T17:16:54.070Z,27.30
2022-08-27T17:19:22.922Z,27.09
2022-08-27T17:21:50.694Z,26.98
2022-08-27T17:24:17.820Z,26.88
2022-08-27T17:26:45.055Z,26.72
2022-08-27T17:29:11.777Z,26.64
2022-08-27T17:31:42.447Z,26.54
2022-08-27T17:34:19.570Z,26.43
2022-08-27T17:36:46.296Z,26.33
2022-08-27T17:39:13.988Z,26.13
2022-08-27T17:41:43.941Z,25.84
2022-08-27T17:44:20.169Z,25.58
2022-08-27T17:46:47.293Z,25.43
2022-08-27T17:49:15.085Z,25.34
2022-08-27T17:51:41.842Z,25.25
2022-08-27T17:54:25.546Z,25.02
2022-08-27T17:56:52.230Z,24.75
2022-08-27T17:59:19.127Z,24.52
2022-08-27T18:01:46.506Z,24.36
2022-08-27T18:04:13.374Z,24.23
2022-08-27T18:06:41.210Z,24.14
2022-08-27T18:09:08.779Z,24.07
2022-08-27T18:11:35.575Z,24.00
2022-08-27T18:14:05.015Z,23.91
2022-08-27T18:16:32.328Z,23.79
2022-08-27T18:18:59.021Z,23.71
2022-08-27T18:21:26.234Z,23.65
2022-08-27T18:23:53.729Z,23.63
2022-08-27T18:26:21.643Z,23.58
2022-08-27T18:28:49.073Z,23.55
2022-08-27T18:31:18.356Z,23.48
2022-08-27T18:33:45.127Z,23.38
2022-08-27T18:36:11.860Z,23.26
2022-08-27T18:38:38.459Z,23.18
2022-08-27T18:41:06.449Z,23.11
2022-08-27T18:43:35.368Z,23.03
2022-08-27T18:46:04.012Z,22.98
2022-08-27T18:48:30.737Z,22.93
2022-08-27T18:50:59.309Z,22.87
2022-08-27T18:53:30.022Z,22.83
2022-08-27T18:55:56.680Z,22.83
2022-08-27T18:58:23.325Z,22.79
2022-08-27T19:00:54.375Z,22.77
2022-08-27T19:03:26.944Z,22.68
2022-08-27T19:05:54.894Z,22.62
2022-08-27T19:08:23.045Z,22.53
2022-08-27T19:10:49.773Z,22.46
2022-08-27T19:13:16.386Z,22.38
2022-08-27T19:15:49.140Z,22.26
2022-08-27T19:18:15.808Z,22.13
2022-08-27T19:20:42.414Z,22.03
2022-08-27T19:23:09.256Z,22.00
2022-08-27T19:25:35.949Z,21.93
2022-08-27T19:28:02.740Z,21.85
2022-08-27T19:30:29.326Z,21.78
2022-08-27T19:32:58.280Z,21.73
2022-08-27T19:35:25.440Z,21.68
2022-08-27T19:37:53.269Z,21.58
2022-08-27T19:40:22.191Z,21.51
2022-08-27T19:42:49.321Z,21.42
2022-08-27T19:45:23.137Z,21.37
2022-08-27T19:47:50.892Z,21.28
2022-08-27T19:50:18.316Z,21.22
2022-08-27T19:52:44.994Z,21.17
2022-08-27T19:55:13.910Z,21.15
2022-08-27T19:57:41.260Z,21.13
2022-08-27T20:00:09.373Z,21.09
2022-08-27T20:02:36.348Z,21.06
2022-08-27T20:05:19.540Z,21.04
2022-08-27T20:07:48.869Z,20.99
2022-08-27T20:10:16.754Z,20.95
2022-08-27T20:12:43.590Z,20.89
2022-08-27T20:15:10.593Z,20.84
2022-08-27T20:17:37.287Z,20.83
2022-08-27T20:20:05.414Z,20.78
2022-08-27T20:22:32.000Z,20.71
2022-08-27T20:24:58.554Z,20.63
2022-08-27T20:27:26.125Z,20.59
2022-08-27T20:29:54.475Z,20.54
2022-08-27T20:32:22.809Z,20.50
2022-08-27T20:34:51.538Z,20.47
2022-08-27T20:37:18.688Z,20.45
2022-08-27T20:39:45.483Z,20.43
2022-08-27T20:42:12.398Z,20.39
2022-08-27T20:44:38.985Z,20.37
2022-08-27T20:47:06.281Z,20.35
2022-08-27T20:49:35.315Z,20.33
2022-08-27T20:52:04.192Z,20.33
2022-08-27T20:54:33.864Z,20.33
2022-08-27T20:57:01.008Z,20.31
2022-08-27T20:59:46.210Z,20.24
2022-08-27T21:02:14.657Z,20.21
2022-08-27T21:04:46.541Z,20.14
2022-08-27T21:07:14.467Z,20.08
2022-08-27T21:09:55.600Z,20.04
2022-08-27T21:12:23.464Z,19.97
2022-08-27T21:14:50.222Z,19.94
2022-08-27T21:17:21.580Z,19.89
2022-08-27T21:19:48.119Z,19.87
2022-08-27T21:22:14.750Z,19.87
2022-08-27T21:24:41.296Z,19.84
2022-08-27T21:27:07.833Z,19.80
2022-08-27T21:29:34.452Z,19.78
2022-08-27T21:32:01.012Z,19.75
2022-08-27T21:34:28.228Z,19.73
2022-08-27T21:36:54.840Z,19.72
2022-08-27T21:39:21.467Z,19.74
2022-08-27T21:41:48.184Z,19.72
2022-08-27T21:44:14.846Z,19.72
2022-08-27T21:46:41.709Z,19.71
2022-08-27T21:49:08.311Z,19.69
2022-08-27T21:51:34.884Z,19.67
2022-08-27T21:54:01.525Z,19.64
2022-08-27T21:56:28.541Z,19.61
2022-08-27T21:58:55.083Z,19.62
2022-08-27T22:01:21.750Z,19.63
2022-08-27T22:03:50.801Z,19.67
2022-08-27T22:06:18.703Z,19.70
2022-08-27T22:08:45.630Z,19.68
2022-08-27T22:11:12.913Z,19.70
2022-08-27T22:13:39.911Z,19.70
2022-08-27T22:16:06.826Z,19.72
2022-08-27T22:18:33.936Z,19.72
2022-08-27T22:21:01.095Z,19.74
2022-08-27T22:23:27.803Z,19.76
2022-08-27T22:25:54.395Z,19.81
2022-08-27T22:28:21.114Z,19.84
2022-08-27T22:30:47.655Z,19.89
2022-08-27T22:33:14.997Z,19.88
2022-08-27T22:35:42.199Z,19.87
2022-08-27T22:38:10.128Z,19.87
2022-08-27T22:40:38.133Z,19.86
2022-08-27T22:43:05.637Z,19.85
2022-08-27T22:45:32.284Z,19.87
2022-08-27T22:47:58.883Z,19.91
2022-08-27T22:50:25.579Z,19.95
2022-08-27T22:52:52.470Z,19.98
2022-08-27T22:55:21.614Z,20.01
2022-08-27T22:57:50.157Z,20.05
2022-08-27T23:00:37.239Z,20.04
2022-08-27T23:03:06.831Z,20.10
2022-08-27T23:05:40.360Z,20.11
2022-08-27T23:08:09.799Z,20.12
2022-08-27T23:10:37.514Z,20.11
2022-08-27T23:13:06.885Z,20.11
2022-08-27T23:15:33.597Z,20.12
2022-08-27T23:18:01.648Z,20.13
2022-08-27T23:20:29.353Z,20.14
2022-08-27T23:22:56.740Z,20.16
2022-08-27T23:25:44.317Z,20.17
2022-08-27T23:28:14.649Z,20.16
2022-08-27T23:30:41.676Z,20.11
2022-08-27T23:33:08.222Z,20.12
2022-08-27T23:35:35.309Z,20.12
2022-08-27T23:38:02.162Z,20.10
2022-08-27T23:40:28.847Z,20.06
2022-08-27T23:42:55.406Z,20.04
2022-08-27T23:45:25.288Z,20.05
2022-08-27T23:47:51.949Z,20.05
2022-08-27T23:50:19.644Z,20.04
2022-08-27T23:52:46.299Z,20.00
2022-08-27T23:55:13.135Z,20.03
2022-08-27T23:57:40.079Z,20.04
